sensor_id;sensor_type;location;lat;lon;timestamp;P1;durP1;ratioP1;P2;durP2;ratioP2
77217;SDS011;66214;51.302;17.068;2023-02-19T00:02:27;39.10;;;14.80;;
77217;SDS011;66214;51.302;17.068;2023-02-19T00:04:54;44.50;;;15.00;;
77217;SDS011;66214;51.302;17.068;2023-02-19T00:07:22;42.00;;;15.10;;
77217;SDS011;66214;51.302;17.068;2023-02-19T00:09:50;31.60;;;13.20;;
77217;SDS011;66214;51.302;17.068;2023-02-19T00:12:18;41.30;;;15.50;;
77217;SDS011;66214;51.302;17.068;2023-02-19T00:14:46;42.20;;;15.60;;
77217;SDS011;66214;51.302;17.068;2023-02-19T00:17:13;40.30;;;16.40;;
77217;SDS011;66214;51.302;17.068;2023-02-19T00:19:41;39.40;;;15.10;;
77217;SDS011;66214;51.302;17.068;2023-02-19T00:22:09;43.70;;;15.60;;
77217;SDS011;66214;51.302;17.068;2023-02-19T00:24:37;39.70;;;15.70;;
77217;SDS011;66214;51.302;17.068;2023-02-19T00:27:05;43.60;;;18.60;;
77217;SDS011;66214;51.302;17.068;2023-02-19T00:29:33;47.30;;;18.40;;
77217;SDS011;66214;51.302;17.068;2023-02-19T00:32:00;48.80;;;20.00;;
77217;SDS011;66214;51.302;17.068;2023-02-19T00:34:28;43.50;;;18.10;;
77217;SDS011;66214;51.302;17.068;2023-02-19T00:36:56;52.30;;;21.40;;
77217;SDS011;66214;51.302;17.068;2023-02-19T00:39:24;69.10;;;28.50;;
77217;SDS011;66214;51.302;17.068;2023-02-19T00:41:52;79.20;;;30.70;;
77217;SDS011;66214;51.302;17.068;2023-02-19T00:44:20;66.90;;;25.30;;
77217;SDS011;66214;51.302;17.068;2023-02-19T00:46:48;64.70;;;27.20;;
77217;SDS011;66214;51.302;17.068;2023-02-19T00:49:20;59.20;;;21.20;;
77217;SDS011;66214;51.302;17.068;2023-02-19T00:51:51;59.10;;;24.60;;
77217;SDS011;66214;51.302;17.068;2023-02-19T00:54:19;53.60;;;19.10;;
77217;SDS011;66214;51.302;17.068;2023-02-19T00:56:49;50.60;;;20.80;;
77217;SDS011;66214;51.302;17.068;2023-02-19T00:59:17;58.70;;;20.70;;
77217;SDS011;66214;51.302;17.068;2023-02-19T01:01:45;48.40;;;19.40;;
77217;SDS011;66214;51.302;17.068;2023-02-19T01:04:13;43.60;;;17.90;;
77217;SDS011;66214;51.302;17.068;2023-02-19T01:06:42;44.50;;;17.50;;
77217;SDS011;66214;51.302;17.068;2023-02-19T01:09:11;41.30;;;16.10;;
77217;SDS011;66214;51.302;17.068;2023-02-19T01:11:38;47.70;;;17.40;;
77217;SDS011;66214;51.302;17.068;2023-02-19T01:14:07;46.50;;;17.40;;
77217;SDS011;66214;51.302;17.068;2023-02-19T01:16:36;51.10;;;19.40;;
77217;SDS011;66214;51.302;17.068;2023-02-19T01:19:04;42.40;;;16.50;;
77217;SDS011;66214;51.302;17.068;2023-02-19T01:21:32;46.90;;;16.30;;
77217;SDS011;66214;51.302;17.068;2023-02-19T01:23:59;38.00;;;16.30;;
77217;SDS011;66214;51.302;17.068;2023-02-19T01:26:29;49.80;;;17.40;;
77217;SDS011;66214;51.302;17.068;2023-02-19T01:28:59;41.10;;;17.20;;
77217;SDS011;66214;51.302;17.068;2023-02-19T01:31:28;38.10;;;17.00;;
77217;SDS011;66214;51.302;17.068;2023-02-19T01:33:59;49.30;;;17.10;;
77217;SDS011;66214;51.302;17.068;2023-02-19T01:36:31;38.90;;;15.60;;
77217;SDS011;66214;51.302;17.068;2023-02-19T01:39:00;37.50;;;14.50;;
77217;SDS011;66214;51.302;17.068;2023-02-19T01:41:35;45.70;;;14.90;;
77217;SDS011;66214;51.302;17.068;2023-02-19T01:46:44;40.70;;;16.50;;
77217;SDS011;66214;51.302;17.068;2023-02-19T01:49:21;40.10;;;15.40;;
77217;SDS011;66214;51.302;17.068;2023-02-19T01:52:05;43.20;;;16.80;;
77217;SDS011;66214;51.302;17.068;2023-02-19T01:54:56;43.80;;;16.20;;
77217;SDS011;66214;51.302;17.068;2023-02-19T01:57:27;43.00;;;15.90;;
77217;SDS011;66214;51.302;17.068;2023-02-19T02:00:03;45.30;;;16.50;;
77217;SDS011;66214;51.302;17.068;2023-02-19T02:02:33;42.80;;;15.30;;
77217;SDS011;66214;51.302;17.068;2023-02-19T02:05:02;34.60;;;14.10;;
77217;SDS011;66214;51.302;17.068;2023-02-19T02:07:30;31.10;;;11.40;;
77217;SDS011;66214;51.302;17.068;2023-02-19T02:10:17;33.40;;;12.60;;
77217;SDS011;66214;51.302;17.068;2023-02-19T02:12:48;32.00;;;12.00;;
77217;SDS011;66214;51.302;17.068;2023-02-19T02:15:18;24.90;;;11.00;;
77217;SDS011;66214;51.302;17.068;2023-02-19T02:17:56;27.50;;;10.20;;
77217;SDS011;66214;51.302;17.068;2023-02-19T02:28:20;28.50;;;10.20;;
77217;SDS011;66214;51.302;17.068;2023-02-19T02:31:18;29.20;;;10.30;;
77217;SDS011;66214;51.302;17.068;2023-02-19T02:34:00;25.90;;;9.90;;
77217;SDS011;66214;51.302;17.068;2023-02-19T02:36:38;31.10;;;12.30;;
77217;SDS011;66214;51.302;17.068;2023-02-19T02:39:11;27.90;;;11.70;;
77217;SDS011;66214;51.302;17.068;2023-02-19T02:41:49;24.10;;;10.50;;
77217;SDS011;66214;51.302;17.068;2023-02-19T02:44:42;31.60;;;14.20;;
77217;SDS011;66214;51.302;17.068;2023-02-19T02:47:33;31.10;;;12.20;;
77217;SDS011;66214;51.302;17.068;2023-02-19T02:50:15;29.00;;;12.10;;
77217;SDS011;66214;51.302;17.068;2023-02-19T02:52:49;25.50;;;7.20;;
77217;SDS011;66214;51.302;17.068;2023-02-19T02:55:41;32.30;;;12.90;;
77217;SDS011;66214;51.302;17.068;2023-02-19T02:58:12;33.60;;;12.80;;
77217;SDS011;66214;51.302;17.068;2023-02-19T03:00:42;30.30;;;11.70;;
77217;SDS011;66214;51.302;17.068;2023-02-19T03:03:31;30.10;;;13.10;;
77217;SDS011;66214;51.302;17.068;2023-02-19T03:08:28;33.50;;;14.00;;
77217;SDS011;66214;51.302;17.068;2023-02-19T07:23:26;17.10;;;5.20;;
77217;SDS011;66214;51.302;17.068;2023-02-19T07:25:54;21.90;;;5.60;;
77217;SDS011;66214;51.302;17.068;2023-02-19T07:28:22;18.80;;;5.90;;
77217;SDS011;66214;51.302;17.068;2023-02-19T07:30:50;15.50;;;6.20;;
77217;SDS011;66214;51.302;17.068;2023-02-19T07:33:18;12.90;;;4.60;;
77217;SDS011;66214;51.302;17.068;2023-02-19T07:35:48;9.30;;;2.80;;
77217;SDS011;66214;51.302;17.068;2023-02-19T07:38:18;13.70;;;4.20;;
77217;SDS011;66214;51.302;17.068;2023-02-19T07:43:20;17.40;;;4.50;;
77217;SDS011;66214;51.302;17.068;2023-02-19T07:45:49;14.40;;;5.40;;
77217;SDS011;66214;51.302;17.068;2023-02-19T07:48:17;24.30;;;5.90;;
77217;SDS011;66214;51.302;17.068;2023-02-19T07:50:57;11.10;;;3.00;;
77217;SDS011;66214;51.302;17.068;2023-02-19T07:56:51;17.70;;;6.50;;
77217;SDS011;66214;51.302;17.068;2023-02-19T07:59:19;10.30;;;3.40;;
77217;SDS011;66214;51.302;17.068;2023-02-19T08:01:48;19.00;;;5.30;;
77217;SDS011;66214;51.302;17.068;2023-02-19T08:04:34;12.80;;;4.30;;
77217;SDS011;66214;51.302;17.068;2023-02-19T08:07:02;17.70;;;6.70;;
77217;SDS011;66214;51.302;17.068;2023-02-19T08:09:32;19.10;;;8.20;;
77217;SDS011;66214;51.302;17.068;2023-02-19T08:12:00;18.70;;;7.10;;
77217;SDS011;66214;51.302;17.068;2023-02-19T08:14:47;13.20;;;5.60;;
77217;SDS011;66214;51.302;17.068;2023-02-19T08:17:14;16.90;;;6.20;;
77217;SDS011;66214;51.302;17.068;2023-02-19T08:19:42;16.40;;;6.10;;
77217;SDS011;66214;51.302;17.068;2023-02-19T08:22:10;18.00;;;7.90;;
77217;SDS011;66214;51.302;17.068;2023-02-19T08:24:39;19.10;;;6.90;;
77217;SDS011;66214;51.302;17.068;2023-02-19T08:27:09;19.60;;;8.50;;
77217;SDS011;66214;51.302;17.068;2023-02-19T08:29:37;20.20;;;7.20;;
77217;SDS011;66214;51.302;17.068;2023-02-19T08:32:05;17.40;;;5.70;;
77217;SDS011;66214;51.302;17.068;2023-02-19T08:34:33;27.70;;;8.40;;
77217;SDS011;66214;51.302;17.068;2023-02-19T08:37:01;16.60;;;6.60;;
77217;SDS011;66214;51.302;17.068;2023-02-19T08:39:28;17.20;;;7.40;;
77217;SDS011;66214;51.302;17.068;2023-02-19T08:41:56;15.60;;;6.70;;
77217;SDS011;66214;51.302;17.068;2023-02-19T08:44:24;18.60;;;6.00;;
